Time;durP1;ratioP1;P1;durP2;ratioP2;P2;SDS_P1;SDS_P2;PMS_P1;PMS_P2;Temp;Humidity;BMP_temperature;BMP_pressure;BME280_temperature;BME280_humidity;BME280_pressure;Samples;Min_cycle;Max_cycle;Signal;HPM_P1;HPM_P2
2023/03/02 00:01:17;;;;;;;;;;;;;;;-0.82;96.89;102435.69;5002304;28;20703;-77
2023/03/02 00:03:42;;;;;;;;;;;;;;;-0.75;97.32;102433.88;5005608;28;19918;-77
2023/03/02 00:06:07;;;;;;;;;;;;;;;-0.71;96.01;102429.44;5023971;28;19923;-78
2023/03/02 00:08:33;;;;;;;;;;;;;;;-0.75;97.17;102428.59;5024858;28;19947;-77
2023/03/02 00:11:00;;;;;;;;;;;;;;;-0.76;97.86;102429.50;5019022;28;19964;-77
2023/03/02 00:13:25;;;;;;;;;;;;;;;-0.73;98.22;102431.22;5005587;28;20008;-78
2023/03/02 00:15:50;;;;;;;;;;;;;;;-0.73;98.90;102425.94;5018278;28;19949;-78
2023/03/02 00:18:16;;;;;;;;;;;;;;;-0.78;98.04;102423.34;5004857;28;20219;-77
2023/03/02 00:20:41;;;;;;;;;;;;;;;-0.81;99.21;102423.34;4999645;28;19924;-78
2023/03/02 00:23:06;;;;;;;;;;;;;;;-0.84;99.92;102426.91;5004938;28;19926;-77
2023/03/02 00:25:31;;;;;;;;;;;;;;;-0.94;100.00;102415.50;5024887;28;19972;-78
2023/03/02 00:27:57;;;;;;;;;;;;;;;-1.01;100.00;102426.97;5025262;28;20262;-78
2023/03/02 00:30:22;;;;;;;;;;;;;;;-1.09;100.00;102431.38;5022355;28;19964;-77
2023/03/02 00:32:47;;;;;;;;;;;;;;;-1.13;100.00;102424.34;4987707;28;19921;-78
2023/03/02 00:35:12;;;;;;;;;;;;;;;-1.15;100.00;102436.66;5009993;28;20023;-78
2023/03/02 00:37:37;;;;;;;;;;;;;;;-1.18;100.00;102434.03;5017253;28;19931;-77
2023/03/02 00:40:05;;;;;;;;;;;;;;;-1.27;100.00;102429.66;5019895;28;19921;-77
2023/03/02 00:42:30;;;;;;;;;;;;;;;-1.26;100.00;102426.16;5026225;28;20425;-77
2023/03/02 00:45:00;;;;;;;;;;;;;;;-1.31;100.00;102428.81;5002244;28;19921;-77
2023/03/02 00:47:25;;;;;;;;;;;;;;;-1.36;100.00;102420.03;5004628;28;19921;-77
2023/03/02 00:49:50;;;;;;;;;;;;;;;-1.38;100.00;102419.16;5013977;28;19925;-77
2023/03/02 00:52:15;;;;;;;;;;;;;;;-1.36;100.00;102413.03;5019519;28;20105;-78
2023/03/02 00:54:41;;;;;;;;;;;;;;;-1.40;100.00;102413.00;5019059;28;20031;-77
2023/03/02 00:57:06;;;;;;;;;;;;;;;-1.45;100.00;102418.31;5014910;28;19925;-77
2023/03/02 00:59:31;;;;;;;;;;;;;;;-1.52;100.00;102409.53;4992494;28;20104;-78
2023/03/02 01:01:57;;;;;;;;;;;;;;;-1.56;100.00;102415.69;5004537;28;20371;-77
2023/03/02 01:04:28;;;;;;;;;;;;;;;-1.66;100.00;102422.72;5010147;28;19928;-78
2023/03/02 01:06:57;;;;;;;;;;;;;;;-1.74;100.00;102421.84;4993437;28;20826;-77
2023/03/02 01:09:22;;;;;;;;;;;;;;;-1.83;100.00;102413.94;4993911;28;19950;-78
2023/03/02 01:11:47;;;;;;;;;;;;;;;-1.87;100.00;102410.44;5015075;28;19921;-78
2023/03/02 01:14:12;;;;;;;;;;;;;;;-1.94;100.00;102413.09;5015460;28;19963;-78
2023/03/02 01:16:38;;;;;;;;;;;;;;;-1.98;100.00;102409.56;5014109;28;20023;-78
2023/03/02 01:19:03;;;;;;;;;;;;;;;-2.06;100.00;102422.72;5000592;28;19925;-77
2023/03/02 01:21:28;;;;;;;;;;;;;;;-2.13;100.00;102419.22;4993635;28;19972;-77
2023/03/02 01:23:53;;;;;;;;;;;;;;;-2.12;100.00;102426.25;5011547;28;20019;-78
2023/03/02 01:26:18;;;;;;;;;;;;;;;-2.08;100.00;102421.84;5009920;28;19959;-78
2023/03/02 01:28:44;;;;;;;;;;;;;;;-2.14;100.00;102412.22;5014531;28;19943;-77
2023/03/02 01:31:09;;;;;;;;;;;;;;;-2.11;100.00;102413.94;5002738;28;19924;-77
2023/03/02 01:33:34;;;;;;;;;;;;;;;-2.04;100.00;102415.72;5002782;28;19980;-78
2023/03/02 01:35:59;;;;;;;;;;;;;;;-1.94;100.00;102419.22;4998623;28;19921;-78
2023/03/02 01:38:25;;;;;;;;;;;;;;;-1.88;100.00;102418.38;5000730;28;19928;-78
2023/03/02 01:40:50;;;;;;;;;;;;;;;-1.84;100.00;102418.34;4999511;28;19921;-78
2023/03/02 01:43:15;;;;;;;;;;;;;;;-1.84;100.00;102414.81;5011775;28;19929;-78
2023/03/02 01:45:52;;;;;;;;;;;;;;;-1.84;100.00;102412.19;5001849;28;19928;-78
2023/03/02 01:48:20;;;;;;;;;;;;;;;-1.86;100.00;102408.72;5001285;28;19925;-78
2023/03/02 01:50:45;;;;;;;;;;;;;;;-1.87;100.00;102404.31;4996974;28;20014;-78
2023/03/02 01:53:10;;;;;;;;;;;;;;;-1.88;100.00;102400.78;5007592;28;20401;-77
2023/03/02 01:55:37;;;;;;;;;;;;;;;-1.82;100.00;102402.53;5011935;28;19921;-78
2023/03/02 01:58:02;;;;;;;;;;;;;;;-1.81;100.00;102405.19;4996337;28;19967;-78
2023/03/02 02:00:29;;;;;;;;;;;;;;;-1.81;100.00;102406.94;5010876;28;19925;-77
2023/03/02 02:02:54;;;;;;;;;;;;;;;-1.75;100.00;102395.53;4997781;28;20401;-78
2023/03/02 02:05:20;;;;;;;;;;;;;;;-1.70;100.00;102399.00;4998450;28;19921;-78
2023/03/02 02:07:46;;;;;;;;;;;;;;;-1.67;100.00;102405.16;4999751;28;19960;-77
2023/03/02 02:10:11;;;;;;;;;;;;;;;-1.67;100.00;102397.28;5003997;28;20005;-78
2023/03/02 02:12:36;;;;;;;;;;;;;;;-1.57;100.00;102400.75;5016433;28;19925;-77
2023/03/02 02:15:02;;;;;;;;;;;;;;;-1.56;100.00;102397.25;5003892;28;20394;-76
2023/03/02 02:17:28;;;;;;;;;;;;;;;-1.52;100.00;102392.84;5019317;28;20020;-78
2023/03/02 02:20:09;;;;;;;;;;;;;;;-1.49;100.00;102398.09;5005326;28;19927;-78
2023/03/02 02:22:37;;;;;;;;;;;;;;;-1.44;100.00;102396.34;5015115;28;20440;-77
2023/03/02 02:25:05;;;;;;;;;;;;;;;-1.39;100.00;102391.03;5027614;28;19917;-78
2023/03/02 02:27:32;;;;;;;;;;;;;;;-1.38;100.00;102390.16;5018767;23;19929;-78
2023/03/02 02:29:57;;;;;;;;;;;;;;;-1.37;100.00;102395.44;5025319;28;20031;-78
2023/03/02 02:32:25;;;;;;;;;;;;;;;-1.42;100.00;102388.41;5023524;28;19921;-77
2023/03/02 02:35:04;;;;;;;;;;;;;;;-1.45;100.00;102389.31;5017411;28;19961;-77
2023/03/02 02:37:33;;;;;;;;;;;;;;;-1.47;100.00;102384.94;5009625;28;19940;-78
2023/03/02 02:39:58;;;;;;;;;;;;;;;-1.49;100.00;102384.06;5009393;28;20015;-78
2023/03/02 02:42:27;;;;;;;;;;;;;;;-1.48;100.00;102381.41;5022414;28;20348;-77
2023/03/02 02:44:56;;;;;;;;;;;;;;;-1.47;100.00;102383.16;5024000;28;20007;-78
2023/03/02 02:47:21;;;;;;;;;;;;;;;-1.51;100.00;102377.03;5009901;28;19921;-78
2023/03/02 02:49:48;;;;;;;;;;;;;;;-1.54;100.00;102373.53;5021794;28;19932;-78
2023/03/02 02:52:14;;;;;;;;;;;;;;;-1.52;100.00;102377.03;5025119;28;19943;-77
2023/03/02 02:54:39;;;;;;;;;;;;;;;-1.56;100.00;102373.53;5019030;28;19925;-77
2023/03/02 02:57:04;;;;;;;;;;;;;;;-1.55;100.00;102371.78;5024902;28;19998;-77
2023/03/02 02:59:34;;;;;;;;;;;;;;;-1.49;100.00;102378.81;5022420;28;20047;-78
2023/03/02 03:01:59;;;;;;;;;;;;;;;-1.48;100.00;102375.28;5025179;28;19974;-77
2023/03/02 03:04:26;;;;;;;;;;;;;;;-1.40;100.00;102374.38;5026967;28;19921;-77
2023/03/02 03:06:52;;;;;;;;;;;;;;;-1.42;100.00;102364.69;5022189;28;19963;-77
2023/03/02 03:09:17;;;;;;;;;;;;;;;-1.44;100.00;102366.47;5007708;28;19921;-77
2023/03/02 03:11:44;;;;;;;;;;;;;;;-1.45;100.00;102369.97;5028045;28;19925;-77
2023/03/02 03:14:14;;;;;;;;;;;;;;;-1.45;100.00;102365.59;5001743;28;19925;-78
2023/03/02 03:16:40;;;;;;;;;;;;;;;-1.42;100.00;102369.97;5005951;28;20209;-78
2023/03/02 03:19:07;;;;;;;;;;;;;;;-1.41;100.00;102369.09;5027329;28;19924;-78
2023/03/02 03:21:33;;;;;;;;;;;;;;;-1.46;100.00;102360.34;5027681;28;20356;-78
2023/03/02 03:23:58;;;;;;;;;;;;;;;-1.45;100.00;102364.72;5022718;28;20351;-77
2023/03/02 03:26:23;;;;;;;;;;;;;;;-1.40;100.00;102368.22;5023285;28;19921;-76
2023/03/02 03:28:49;;;;;;;;;;;;;;;-1.40;100.00;102362.94;5029393;28;19975;-78
2023/03/02 03:31:14;;;;;;;;;;;;;;;-1.39;100.00;102362.06;5027516;28;19968;-78
2023/03/02 03:33:39;;;;;;;;;;;;;;;-1.44;100.00;102355.94;5036871;28;20036;-78
2023/03/02 03:36:04;;;;;;;;;;;;;;;-1.51;100.00;102361.25;5022784;28;19921;-77
2023/03/02 03:38:30;;;;;;;;;;;;;;;-1.53;100.00;102349.81;5019228;28;19959;-78
2023/03/02 03:40:55;;;;;;;;;;;;;;;-1.54;100.00;102360.34;5006513;28;19921;-77
2023/03/02 03:43:20;;;;;;;;;;;;;;;-1.50;100.00;102354.19;5007568;28;19940;-77
2023/03/02 03:45:45;;;;;;;;;;;;;;;-1.52;100.00;102350.69;5023257;28;20276;-76
2023/03/02 03:48:10;;;;;;;;;;;;;;;-1.53;100.00;102352.47;5025382;28;20228;-77
2023/03/02 03:50:36;;;;;;;;;;;;;;;-1.49;100.00;102349.81;5024160;28;20339;-77
2023/03/02 03:53:01;;;;;;;;;;;;;;;-1.53;100.00;102354.19;5008899;28;20369;-77
2023/03/02 03:55:27;;;;;;;;;;;;;;;-1.54;100.00;102355.97;5021047;28;20000;-77
2023/03/02 03:57:53;;;;;;;;;;;;;;;-1.48;100.00;102360.34;5027650;28;20340;-77
2023/03/02 04:00:18;;;;;;;;;;;;;;;-1.47;100.00;102353.31;5025879;28;19917;-77
2023/03/02 04:02:44;;;;;;;;;;;;;;;-1.52;100.00;102356.84;5026625;28;19921;-77
2023/03/02 04:05:09;;;;;;;;;;;;;;;-1.58;100.00;102346.31;5031138;28;19913;-77
2023/03/02 04:07:35;;;;;;;;;;;;;;;-1.57;100.00;102352.44;5013182;28;19921;-78
2023/03/02 04:10:03;;;;;;;;;;;;;;;-1.53;100.00;102349.81;5026519;28;19921;-78
2023/03/02 04:12:29;;;;;;;;;;;;;;;-1.57;100.00;102355.97;5009189;28;20546;-77
2023/03/02 04:14:54;;;;;;;;;;;;;;;-1.59;100.00;102349.84;5027113;28;19921;-77
2023/03/02 04:17:19;;;;;;;;;;;;;;;-1.59;100.00;102352.47;5020718;28;22591;-77
2023/03/02 04:19:45;;;;;;;;;;;;;;;-1.65;100.00;102360.38;5023486;28;20403;-77
2023/03/02 04:22:10;;;;;;;;;;;;;;;-1.66;100.00;102361.25;5021192;28;20421;-77
2023/03/02 04:24:35;;;;;;;;;;;;;;;-1.78;100.00;102362.16;5010498;28;20302;-77
2023/03/02 04:27:00;;;;;;;;;;;;;;;-1.74;100.00;102361.28;5023770;28;20359;-77
2023/03/02 04:29:25;;;;;;;;;;;;;;;-1.75;100.00;102358.66;5021221;28;20325;-77
2023/03/02 04:31:51;;;;;;;;;;;;;;;-1.80;100.00;102361.28;5025811;28;19928;-77
2023/03/02 04:34:16;;;;;;;;;;;;;;;-1.84;100.00;102368.31;5025894;28;19928;-78
2023/03/02 04:36:41;;;;;;;;;;;;;;;-1.88;100.00;102363.94;5010181;28;19956;-77
2023/03/02 04:39:07;;;;;;;;;;;;;;;-1.90;100.00;102376.22;5005494;28;19921;-79
2023/03/02 04:41:32;;;;;;;;;;;;;;;-1.88;100.00;102374.47;5007190;28;19928;-77
2023/03/02 04:43:57;;;;;;;;;;;;;;;-1.94;100.00;102370.97;5011995;28;19921;-77
2023/03/02 04:46:23;;;;;;;;;;;;;;;-2.03;100.00;102369.22;5018558;28;20478;-78
2023/03/02 04:48:49;;;;;;;;;;;;;;;-2.04;100.00;102367.47;5017932;28;19925;-77
2023/03/02 04:51:22;;;;;;;;;;;;;;;-1.99;100.00;102371.84;5001472;28;19925;-77
2023/03/02 04:53:48;;;;;;;;;;;;;;;-2.06;100.00;102366.59;5017934;28;19921;-78
2023/03/02 04:56:13;;;;;;;;;;;;;;;-2.02;100.00;102369.22;5021012;28;19921;-78
2023/03/02 04:58:38;;;;;;;;;;;;;;;-1.95;100.00;102370.06;5020685;28;19921;-77
2023/03/02 05:01:03;;;;;;;;;;;;;;;-1.96;100.00;102366.59;5018337;28;19922;-76
2023/03/02 05:03:29;;;;;;;;;;;;;;;-1.91;100.00;102365.72;4998906;28;20387;-77
2023/03/02 05:05:54;;;;;;;;;;;;;;;-1.91;100.00;102361.31;5022675;28;19927;-77
2023/03/02 05:08:19;;;;;;;;;;;;;;;-1.92;100.00;102362.19;5021143;28;19948;-78
2023/03/02 05:10:45;;;;;;;;;;;;;;;-1.90;100.00;102367.47;5019596;28;19925;-78
2023/03/02 05:13:11;;;;;;;;;;;;;;;-1.89;100.00;102362.19;5022324;28;19929;-78
2023/03/02 05:15:38;;;;;;;;;;;;;;;-1.89;100.00;102362.19;5021338;28;20384;-77
2023/03/02 05:18:05;;;;;;;;;;;;;;;-1.83;100.00;102369.19;5018093;28;20320;-77
2023/03/02 05:20:30;;;;;;;;;;;;;;;-1.88;100.00;102365.72;5018371;28;19932;-77
2023/03/02 05:22:56;;;;;;;;;;;;;;;-1.94;100.00;102366.56;5018965;28;19920;-78
2023/03/02 05:25:21;;;;;;;;;;;;;;;-1.97;100.00;102362.19;5020558;28;19921;-77
2023/03/02 05:27:47;;;;;;;;;;;;;;;-1.98;100.00;102364.81;5015353;28;20350;-78
2023/03/02 05:30:12;;;;;;;;;;;;;;;-2.01;100.00;102359.56;5021643;28;19925;-77
2023/03/02 05:32:37;;;;;;;;;;;;;;;-2.08;100.00;102357.81;5024278;28;20381;-76
2023/03/02 05:35:03;;;;;;;;;;;;;;;-2.14;100.00;102356.94;5020568;28;19920;-77
2023/03/02 05:37:28;;;;;;;;;;;;;;;-2.07;100.00;102356.94;5020119;28;19948;-78
2023/03/02 05:39:53;;;;;;;;;;;;;;;-2.06;100.00;102358.69;5017257;28;19940;-75
2023/03/02 05:42:18;;;;;;;;;;;;;;;-2.11;100.00;102354.31;5011410;28;20351;-78
2023/03/02 05:44:44;;;;;;;;;;;;;;;-2.08;100.00;102357.81;5021715;28;20379;-78
2023/03/02 05:47:09;;;;;;;;;;;;;;;-2.13;100.00;102355.19;5025117;28;20325;-78
2023/03/02 05:49:34;;;;;;;;;;;;;;;-2.06;100.00;102361.34;5023374;28;19921;-78
2023/03/02 05:51:59;;;;;;;;;;;;;;;-2.10;100.00;102352.53;5005393;28;20348;-77
2023/03/02 05:54:24;;;;;;;;;;;;;;;-2.11;100.00;102356.03;5001315;28;20150;-77
2023/03/02 05:56:50;;;;;;;;;;;;;;;-2.11;100.00;102359.56;5017736;28;19925;-77
2023/03/02 05:59:15;;;;;;;;;;;;;;;-2.06;100.00;102356.94;5009697;28;19929;-78
2023/03/02 06:01:40;;;;;;;;;;;;;;;-2.08;100.00;102363.09;5020752;28;19921;-77
2023/03/02 06:04:05;;;;;;;;;;;;;;;-2.17;100.00;102356.94;5022668;28;19948;-77
2023/03/02 06:06:31;;;;;;;;;;;;;;;-2.20;100.00;102359.56;5015514;28;19928;-78
2023/03/02 06:08:56;;;;;;;;;;;;;;;-2.19;100.00;102363.09;5020637;28;20082;-77
2023/03/02 06:11:21;;;;;;;;;;;;;;;-2.22;100.00;102357.81;5024432;28;19983;-77
2023/03/02 06:13:46;;;;;;;;;;;;;;;-2.31;100.00;102348.19;5021377;28;19978;-78
2023/03/02 06:16:11;;;;;;;;;;;;;;;-2.32;100.00;102347.28;5023596;28;20051;-78
2023/03/02 06:18:37;;;;;;;;;;;;;;;-2.38;100.00;102352.53;5006322;28;20016;-77
2023/03/02 06:21:02;;;;;;;;;;;;;;;-2.46;100.00;102359.56;5005923;28;19921;-77
2023/03/02 06:23:27;;;;;;;;;;;;;;;-2.41;100.00;102363.09;5022716;28;20337;-77
2023/03/02 06:25:53;;;;;;;;;;;;;;;-2.44;100.00;102360.44;5006838;28;19959;-77
2023/03/02 06:28:18;;;;;;;;;;;;;;;-2.43;100.00;102363.06;5023719;28;20341;-77
2023/03/02 06:30:44;;;;;;;;;;;;;;;-2.44;100.00;102363.06;5018357;28;19932;-77
2023/03/02 06:33:09;;;;;;;;;;;;;;;-2.41;100.00;102361.31;5019637;28;19924;-78
2023/03/02 06:35:34;;;;;;;;;;;;;;;-2.33;100.00;102365.72;5005733;28;20406;-78
2023/03/02 06:38:00;;;;;;;;;;;;;;;-2.31;100.00;102371.84;5014421;28;20356;-77
2023/03/02 06:40:25;;;;;;;;;;;;;;;-2.27;100.00;102369.22;5019697;28;20449;-78
2023/03/02 06:42:50;;;;;;;;;;;;;;;-2.21;100.00;102363.06;5019832;28;20505;-77
2023/03/02 06:45:15;;;;;;;;;;;;;;;-2.24;100.00;102370.09;5019209;28;19964;-77
2023/03/02 06:47:41;;;;;;;;;;;;;;;-2.18;100.00;102378.88;5021884;28;20012;-78
2023/03/02 06:50:06;;;;;;;;;;;;;;;-2.17;100.00;102375.34;5007640;28;20466;-77
2023/03/02 06:52:31;;;;;;;;;;;;;;;-2.08;100.00;102379.75;5022517;28;20399;-78
2023/03/02 06:54:56;;;;;;;;;;;;;;;-2.04;100.00;102380.63;5020226;28;19920;-77
2023/03/02 06:57:22;;;;;;;;;;;;;;;-2.03;100.00;102374.50;5023243;28;19929;-77
2023/03/02 06:59:47;;;;;;;;;;;;;;;-2.01;100.00;102370.97;5023472;28;20171;-78
2023/03/02 07:02:12;;;;;;;;;;;;;;;-1.94;100.00;102379.72;5015578;28;19963;-78
2023/03/02 07:04:38;;;;;;;;;;;;;;;-1.86;100.00;102377.97;5013978;28;19944;-78
2023/03/02 07:07:03;;;;;;;;;;;;;;;-1.82;100.00;102378.84;5024568;28;19921;-78
2023/03/02 07:09:29;;;;;;;;;;;;;;;-1.70;100.00;102378.84;5027923;28;19966;-77
2023/03/02 07:11:55;;;;;;;;;;;;;;;-1.64;100.00;102384.97;5007980;28;19933;-77
2023/03/02 07:14:20;;;;;;;;;;;;;;;-1.64;100.00;102387.63;5017549;28;19921;-78
2023/03/02 07:16:45;;;;;;;;;;;;;;;-1.58;100.00;102385.84;5023725;28;20123;-77
2023/03/02 07:19:11;;;;;;;;;;;;;;;-1.51;100.00;102389.31;5020933;28;19925;-77
2023/03/02 07:21:36;;;;;;;;;;;;;;;-1.37;100.00;102386.66;5021295;28;19925;-77
2023/03/02 07:24:02;;;;;;;;;;;;;;;-1.29;100.00;102382.25;5024850;28;19924;-78
2023/03/02 07:26:27;;;;;;;;;;;;;;;-1.28;100.00;102388.38;5019504;28;19960;-77
2023/03/02 07:28:52;;;;;;;;;;;;;;;-1.21;100.00;102391.00;5024183;28;19921;-77
2023/03/02 07:31:17;;;;;;;;;;;;;;;-1.02;100.00;102388.28;5029378;28;19960;-77
2023/03/02 07:33:43;;;;;;;;;;;;;;;-0.92;100.00;102383.84;5005384;28;20226;-77
2023/03/02 07:36:08;;;;;;;;;;;;;;;-0.82;100.00;102384.66;5020654;28;19948;-77
2023/03/02 07:38:33;;;;;;;;;;;;;;;-0.78;100.00;102373.22;5022629;28;19929;-77
2023/03/02 07:40:58;;;;;;;;;;;;;;;-0.69;100.00;102381.09;5020000;28;19924;-76
2023/03/02 07:43:25;;;;;;;;;;;;;;;-0.61;100.00;102373.13;5013486;28;20035;-77
2023/03/02 07:45:50;;;;;;;;;;;;;;;-0.47;100.00;102379.19;5017607;28;19920;-77
2023/03/02 07:48:15;;;;;;;;;;;;;;;-0.38;100.00;102382.66;5006184;28;19924;-77
2023/03/02 07:50:41;;;;;;;;;;;;;;;-0.26;100.00;102379.91;5035124;28;19920;-77
2023/03/02 07:53:06;;;;;;;;;;;;;;;-0.07;100.00;102382.41;5025842;28;20435;-77
2023/03/02 07:55:31;;;;;;;;;;;;;;;-0.09;100.00;102377.13;5020376;28;20378;-77
2023/03/02 07:57:56;;;;;;;;;;;;;;;0.13;100.00;102387.53;5024504;28;20372;-77
2023/03/02 08:00:22;;;;;;;;;;;;;;;0.28;100.00;102389.13;5026071;28;20249;-77
2023/03/02 08:02:47;;;;;;;;;;;;;;;0.51;100.00;102382.75;5022743;28;19921;-77
2023/03/02 08:05:12;;;;;;;;;;;;;;;0.73;100.00;102391.28;5021276;28;20342;-77
2023/03/02 08:07:39;;;;;;;;;;;;;;;0.88;100.00;102393.78;5024611;28;20325;-77
2023/03/02 08:10:04;;;;;;;;;;;;;;;1.18;100.00;102391.63;5022663;28;19924;-77
2023/03/02 08:12:30;;;;;;;;;;;;;;;1.35;100.00;102391.38;5040928;28;19967;-77
2023/03/02 08:14:55;;;;;;;;;;;;;;;1.53;100.00;102385.84;5026077;28;20022;-77
2023/03/02 08:17:20;;;;;;;;;;;;;;;1.95;100.00;102388.72;5023047;28;20059;-77
2023/03/02 08:19:45;;;;;;;;;;;;;;;2.27;100.00;102391.69;5021741;28;19920;-77
2023/03/02 08:22:11;;;;;;;;;;;;;;;2.52;100.00;102386.81;5019669;28;19925;-77
2023/03/02 08:24:36;;;;;;;;;;;;;;;2.83;100.00;102391.50;5022098;28;20375;-78
2023/03/02 08:27:02;;;;;;;;;;;;;;;3.18;100.00;102387.25;5021545;28;20052;-77
2023/03/02 08:29:27;;;;;;;;;;;;;;;3.39;100.00;102377.03;5024610;28;19925;-77
2023/03/02 08:31:52;;;;;;;;;;;;;;;3.43;100.00;102381.38;5026850;28;19948;-76
2023/03/02 08:34:18;;;;;;;;;;;;;;;3.78;100.00;102376.13;5027870;28;19955;-77
2023/03/02 08:36:43;;;;;;;;;;;;;;;4.01;100.00;102375.56;5003926;28;19979;-77
2023/03/02 08:39:09;;;;;;;;;;;;;;;4.31;99.86;102378.34;5026082;28;19928;-77
2023/03/02 08:41:34;;;;;;;;;;;;;;;4.18;93.87;102375.13;5022669;28;20551;-77
2023/03/02 08:43:59;;;;;;;;;;;;;;;4.62;93.84;102380.16;5022697;28;20466;-77
2023/03/02 08:46:24;;;;;;;;;;;;;;;4.97;93.51;102364.94;5017695;28;19956;-77
2023/03/02 08:48:50;;;;;;;;;;;;;;;5.33;89.58;102364.75;5023951;28;19921;-77
2023/03/02 08:51:17;;;;;;;;;;;;;;;5.13;81.37;102369.84;5021759;28;19925;-77
2023/03/02 08:53:43;;;;;;;;;;;;;;;4.81;81.28;102369.84;5007316;28;20311;-76
2023/03/02 08:56:15;;;;;;;;;;;;;;;4.82;81.57;102365.41;5026610;28;20387;-77
2023/03/02 08:58:40;;;;;;;;;;;;;;;4.36;82.63;102363.16;5023843;28;19971;-77
2023/03/02 09:01:05;;;;;;;;;;;;;;;4.53;80.46;102367.97;5024531;28;19956;-77
2023/03/02 09:03:30;;;;;;;;;;;;;;;5.03;82.21;102367.44;5007724;28;20012;-77
2023/03/02 09:05:55;;;;;;;;;;;;;;;5.44;79.64;102369.75;5036559;28;19926;-77
2023/03/02 09:08:22;;;;;;;;;;;;;;;5.75;76.65;102368.75;5006455;28;19943;-77
2023/03/02 09:10:47;;;;;;;;;;;;;;;6.00;72.67;102368.81;5023002;28;19931;-77
2023/03/02 09:13:12;;;;;;;;;;;;;;;5.65;73.56;102370.84;5019717;28;20540;-77
2023/03/02 09:15:38;;;;;;;;;;;;;;;5.89;73.80;102364.75;5024475;28;20264;-78
2023/03/02 09:18:03;;;;;;;;;;;;;;;5.94;72.38;102369.03;5023785;28;19928;-77
2023/03/02 09:20:28;;;;;;;;;;;;;;;6.13;69.16;102363.09;5022709;28;19968;-77
2023/03/02 09:22:53;;;;;;;;;;;;;;;5.98;70.56;102362.63;5000409;28;19964;-78
2023/03/02 09:25:19;;;;;;;;;;;;;;;6.20;70.31;102358.41;5023683;28;19931;-78
2023/03/02 09:27:44;;;;;;;;;;;;;;;6.14;68.53;102368.34;5023016;28;19927;-77
2023/03/02 09:30:10;;;;;;;;;;;;;;;5.85;67.47;102364.84;5021216;28;19929;-78
2023/03/02 09:32:35;;;;;;;;;;;;;;;6.20;69.35;102363.72;4996146;28;19921;-76
2023/03/02 09:35:01;;;;;;;;;;;;;;;6.38;69.27;102362.22;5024217;28;19924;-77
2023/03/02 09:37:26;;;;;;;;;;;;;;;6.18;65.85;102362.91;5023809;28;19928;-78
2023/03/02 09:39:51;;;;;;;;;;;;;;;6.41;64.59;102352.28;5020884;28;19944;-76
2023/03/02 09:42:26;;;;;;;;;;;;;;;6.57;63.46;102360.63;5021182;28;20346;-78
2023/03/02 09:44:57;;;;;;;;;;;;;;;6.91;63.65;102361.16;5015895;28;19917;-77
2023/03/02 09:47:35;;;;;;;;;;;;;;;7.31;64.51;102351.59;5023175;28;20360;-78
2023/03/02 09:50:04;;;;;;;;;;;;;;;7.46;62.29;102355.47;5005466;28;19975;-77
2023/03/02 09:52:48;;;;;;;;;;;;;;;7.60;59.86;102356.69;5021476;28;20423;-77
2023/03/02 09:55:15;;;;;;;;;;;;;;;7.34;59.06;102356.81;5021755;28;20911;-77
2023/03/02 09:57:40;;;;;;;;;;;;;;;7.29;60.70;102352.56;5023280;28;19963;-77
2023/03/02 10:00:06;;;;;;;;;;;;;;;7.97;59.60;102360.50;5021577;28;19924;-77
2023/03/02 10:02:34;;;;;;;;;;;;;;;8.40;62.41;102344.41;5019122;28;20335;-77
2023/03/02 10:05:01;;;;;;;;;;;;;;;8.85;56.37;102348.63;5021840;28;19963;-77
2023/03/02 10:07:27;;;;;;;;;;;;;;;8.84;56.24;102354.06;5020929;28;20296;-77
2023/03/02 10:09:53;;;;;;;;;;;;;;;9.30;53.37;102349.19;5006797;28;19928;-77
2023/03/02 10:12:21;;;;;;;;;;;;;;;9.05;53.14;102346.81;5023285;28;19917;-77
2023/03/02 10:14:57;;;;;;;;;;;;;;;9.34;55.26;102347.22;5021456;28;19928;-78
2023/03/02 10:17:32;;;;;;;;;;;;;;;9.86;51.77;102354.50;5022562;28;20173;-77
2023/03/02 10:20:18;;;;;;;;;;;;;;;9.97;52.38;102345.03;5018101;28;19921;-78
2023/03/02 10:22:45;;;;;;;;;;;;;;;10.37;52.45;102345.66;5017032;28;19917;-78
2023/03/02 10:25:28;;;;;;;;;;;;;;;10.73;49.48;102347.31;5022798;28;19925;-76
2023/03/02 10:27:59;;;;;;;;;;;;;;;10.67;47.14;102339.63;4942661;28;1746757;-77
2023/03/02 10:30:28;;;;;;;;;;;;;;;10.72;45.89;102355.47;5023169;28;20610;-77
2023/03/02 10:32:54;;;;;;;;;;;;;;;10.73;47.50;102357.22;5025021;28;19920;-77
2023/03/02 10:35:21;;;;;;;;;;;;;;;10.19;46.82;102351.06;5027797;28;19978;-76
2023/03/02 10:37:47;;;;;;;;;;;;;;;10.25;46.21;102344.50;5024290;28;19971;-77
2023/03/02 10:40:24;;;;;;;;;;;;;;;11.12;47.19;102347.03;5024074;28;19921;-77
2023/03/02 10:42:50;;;;;;;;;;;;;;;11.49;46.79;102336.88;5033304;28;19925;-77
2023/03/02 10:45:33;;;;;;;;;;;;;;;11.41;45.20;102334.63;5028499;28;19959;-78
2023/03/02 10:48:02;;;;;;;;;;;;;;;11.97;45.08;102339.44;5014030;28;19960;-78
2023/03/02 10:50:29;;;;;;;;;;;;;;;11.77;43.97;102333.44;5006173;28;20265;-77
2023/03/02 10:52:54;;;;;;;;;;;;;;;12.41;43.02;102341.31;5012131;28;19928;-79
2023/03/02 10:55:20;;;;;;;;;;;;;;;12.14;44.03;102330.38;5022890;28;20394;-77
2023/03/02 10:57:45;;;;;;;;;;;;;;;12.30;45.59;102333.91;5027236;28;19921;-77
2023/03/02 11:00:19;;;;;;;;;;;;;;;11.68;43.55;102339.34;5029125;28;19972;-79
2023/03/02 11:02:55;;;;;;;;;;;;;;;12.68;44.36;102332.47;5019565;28;19921;-79
2023/03/02 11:05:33;;;;;;;;;;;;;;;13.41;42.26;102325.13;5006323;28;19926;-80
2023/03/02 11:08:00;;;;;;;;;;;;;;;12.84;41.80;102332.38;5024377;28;20394;-80
2023/03/02 11:10:30;;;;;;;;;;;;;;;13.67;41.82;102321.66;5025747;28;19929;-79
2023/03/02 11:12:57;;;;;;;;;;;;;;;13.87;37.95;102318.47;5008056;28;19921;-80
2023/03/02 11:15:26;;;;;;;;;;;;;;;14.71;38.54;102326.19;5027083;28;20047;-76
2023/03/02 11:17:58;;;;;;;;;;;;;;;13.61;39.00;102314.84;5027339;28;19928;-77
2023/03/02 11:20:25;;;;;;;;;;;;;;;14.50;38.52;102306.94;5022380;28;20067;-78
2023/03/02 11:22:50;;;;;;;;;;;;;;;14.60;36.22;102315.25;5020091;28;20686;-78
2023/03/02 11:25:21;;;;;;;;;;;;;;;13.68;38.36;102299.09;5026213;28;19943;-78
2023/03/02 11:27:56;;;;;;;;;;;;;;;13.50;38.10;102292.13;5009964;28;19954;-78
2023/03/02 11:30:25;;;;;;;;;;;;;;;14.78;37.38;102299.56;5019813;28;19925;-79
2023/03/02 11:32:54;;;;;;;;;;;;;;;14.69;36.62;102296.56;5014808;28;19921;-77
2023/03/02 11:35:19;;;;;;;;;;;;;;;14.77;36.12;102293.31;5033954;28;19925;-77
2023/03/02 11:37:45;;;;;;;;;;;;;;;14.43;35.64;102293.00;5026827;28;19921;-78
2023/03/02 11:40:21;;;;;;;;;;;;;;;14.05;35.05;102293.84;5013327;28;19927;-78
2023/03/02 11:42:46;;;;;;;;;;;;;;;14.73;36.11;102282.81;5024845;28;19957;-78
2023/03/02 11:45:12;;;;;;;;;;;;;;;14.68;34.47;102286.75;5025162;28;20020;-78
2023/03/02 11:47:37;;;;;;;;;;;;;;;15.37;34.08;102288.00;5022609;28;22397;-78
2023/03/02 11:50:04;;;;;;;;;;;;;;;16.25;33.36;102276.84;5023516;28;20333;-80
2023/03/02 11:52:29;;;;;;;;;;;;;;;16.56;33.37;102266.22;5026571;28;19971;-80
2023/03/02 11:54:58;;;;;;;;;;;;;;;17.24;32.99;102271.56;5026240;28;19921;-80
2023/03/02 11:57:33;;;;;;;;;;;;;;;17.63;32.29;102274.59;5023727;28;19921;-77
2023/03/02 11:59:58;;;;;;;;;;;;;;;17.02;32.22;102267.06;5024406;28;20019;-78
2023/03/02 12:02:23;;;;;;;;;;;;;;;15.60;32.10;102269.16;5027580;28;20051;-78
2023/03/02 12:04:49;;;;;;;;;;;;;;;16.44;33.46;102265.38;5022364;28;20260;-79
2023/03/02 12:07:21;;;;;;;;;;;;;;;17.08;31.39;102266.56;5020328;28;19921;-79
2023/03/02 12:09:55;;;;;;;;;;;;;;;17.79;31.11;102267.88;5027188;28;20374;-79
2023/03/02 12:12:34;;;;;;;;;;;;;;;17.76;30.68;102259.97;5022391;28;19929;-78
2023/03/02 12:14:59;;;;;;;;;;;;;;;17.33;30.21;102257.25;5014377;28;19921;-79
2023/03/02 12:17:24;;;;;;;;;;;;;;;16.85;29.41;102263.88;5028088;28;20187;-79
2023/03/02 12:19:51;;;;;;;;;;;;;;;17.59;29.62;102250.56;5026528;28;19931;-80
2023/03/02 12:22:27;;;;;;;;;;;;;;;16.92;29.98;102256.09;5020349;28;19921;-78
2023/03/02 12:24:58;;;;;;;;;;;;;;;16.19;30.39;102248.38;5022371;28;19995;-78
2023/03/02 12:27:24;;;;;;;;;;;;;;;16.40;31.25;102228.69;5018505;28;19925;-78
2023/03/02 12:29:49;;;;;;;;;;;;;;;16.40;30.85;102242.25;5024828;28;19920;-78